Time;durP1;ratioP1;P1;durP2;ratioP2;P2;SDS_P1;SDS_P2;PMS_P1;PMS_P2;Temp;Humidity;BMP_temperature;BMP_pressure;BME280_temperature;BME280_humidity;BME280_pressure;Samples;Min_cycle;Max_cycle;Signal;HPM_P1;HPM_P2
2023/01/05 00:00:25;;;;;;;1.90;0.70;;;10.60;99.90;;;11.08;100.00;98390.06;5057441;28;20483;-79
2023/01/05 00:02:55;;;;;;;0.70;0.70;;;10.70;99.90;;;11.07;100.00;98397.13;5066457;28;20487;-78
2023/01/05 00:05:25;;;;;;;1.10;0.73;;;10.60;99.90;;;11.09;100.00;98391.72;5055897;28;20872;-78
2023/01/05 00:07:56;;;;;;;1.00;0.80;;;10.70;99.90;;;11.08;100.00;98395.31;5053868;28;20546;-79
2023/01/05 00:24:23;;;;;;;0.70;0.70;;;10.70;99.90;;;11.15;100.00;98370.03;5053112;28;20499;-79
2023/01/05 00:26:53;;;;;;;0.70;0.60;;;10.80;99.90;;;11.16;100.00;98376.91;5055027;28;20469;-79
2023/01/05 00:29:23;;;;;;;0.73;0.70;;;10.70;99.90;;;11.21;100.00;98377.16;5055587;28;20457;-79
2023/01/05 00:31:52;;;;;;;2.43;0.73;;;10.90;99.90;;;11.23;100.00;98367.31;5054951;28;20469;-79
2023/01/05 00:34:22;;;;;;;0.73;0.73;;;10.90;99.90;;;11.25;100.00;98365.31;5052727;28;20468;-79
2023/01/05 00:36:51;;;;;;;0.80;0.70;;;10.80;99.90;;;11.27;100.00;98358.13;5053086;28;20497;-79
2023/01/05 00:39:20;;;;;;;0.80;0.70;;;10.90;99.90;;;11.29;100.00;98353.50;5053229;28;20492;-78
2023/01/05 00:41:50;;;;;;;0.70;0.60;;;10.90;99.90;;;11.30;100.00;98360.38;5052364;28;20464;-79
2023/01/05 00:44:19;;;;;;;0.80;0.70;;;10.80;99.90;;;11.31;100.00;98354.16;5054612;28;20519;-79
2023/01/05 00:46:50;;;;;;;0.97;0.90;;;10.90;99.90;;;11.31;100.00;98351.53;5054448;28;20449;-78
2023/01/05 00:49:20;;;;;;;1.13;0.87;;;11.00;99.90;;;11.31;100.00;98356.75;5053059;28;20532;-79
2023/01/05 00:51:49;;;;;;;2.50;0.70;;;11.00;99.90;;;11.30;100.00;98359.56;5053532;28;20514;-79
2023/01/05 00:54:19;;;;;;;3.23;0.90;;;10.90;99.90;;;11.30;100.00;98352.50;5054109;28;20489;-79
2023/01/05 00:56:50;;;;;;;6.43;0.80;;;10.80;99.90;;;11.30;100.00;98355.13;5055523;28;20840;-79
2023/01/05 00:59:19;;;;;;;0.73;0.73;;;10.90;99.90;;;11.31;100.00;98363.81;5056753;28;20471;-78
2023/01/05 01:01:51;;;;;;;4.00;0.70;;;10.90;99.90;;;11.30;100.00;98364.78;5053203;28;20485;-78
2023/01/05 01:04:22;;;;;;;4.40;0.60;;;10.90;99.90;;;11.32;100.00;98365.41;5053399;28;20465;-78
2023/01/05 01:06:53;;;;;;;2.10;0.63;;;11.00;99.90;;;11.32;100.00;98368.03;5053267;28;20457;-79
2023/01/05 01:09:23;;;;;;;0.60;0.60;;;10.90;99.90;;;11.33;100.00;98382.75;5052227;28;20886;-78
2023/01/05 01:11:53;;;;;;;0.67;0.60;;;10.90;99.90;;;11.30;100.00;98377.88;5054445;28;20839;-79
2023/01/05 01:14:23;;;;;;;1.63;0.90;;;10.90;99.90;;;11.30;100.00;98377.88;5053276;28;20919;-80
2023/01/05 01:16:55;;;;;;;2.40;0.80;;;10.80;99.90;;;11.29;100.00;98379.69;5051426;28;21185;-79
2023/01/05 01:19:26;;;;;;;0.70;0.60;;;10.70;99.90;;;11.32;100.00;98387.16;5053511;28;21200;-79
2023/01/05 01:21:56;;;;;;;2.00;0.70;;;10.90;99.90;;;11.32;100.00;98396.81;5052787;28;20619;-79
2023/01/05 01:24:27;;;;;;;1.83;0.70;;;10.90;99.90;;;11.34;100.00;98406.13;5053312;28;20544;-79
2023/01/05 01:26:58;;;;;;;0.70;0.60;;;11.00;99.90;;;11.35;100.00;98406.94;5053382;28;20807;-79
2023/01/05 01:29:28;;;;;;;0.70;0.63;;;11.00;99.90;;;11.33;100.00;98408.91;5055335;28;20456;-79
2023/01/05 01:31:59;;;;;;;0.73;0.73;;;11.00;99.90;;;11.33;100.00;98417.59;5055776;28;20499;-79
2023/01/05 01:34:30;;;;;;;1.03;0.70;;;11.00;99.90;;;11.33;100.00;98419.41;5057566;28;20544;-79
2023/01/05 01:36:59;;;;;;;0.70;0.70;;;11.00;99.90;;;11.31;100.00;98430.06;5057786;28;20526;-79
2023/01/05 01:39:28;;;;;;;1.13;0.83;;;10.90;99.90;;;11.29;100.00;98434.66;5059332;28;20865;-79
2023/01/05 01:41:58;;;;;;;1.57;0.90;;;11.00;99.90;;;11.31;100.00;98431.88;5058031;28;20464;-79
2023/01/05 01:44:50;;;;;;;1.00;0.70;;;10.90;99.90;;;11.28;100.00;98432.22;5057104;28;21290;-79
2023/01/05 01:47:32;;;;;;;2.17;0.93;;;10.80;99.90;;;11.29;100.00;98429.41;5061138;28;20456;-79
2023/01/05 01:50:11;;;;;;;1.37;0.90;;;10.90;99.90;;;11.28;100.00;98440.88;5063107;28;21031;-79
2023/01/05 01:52:43;;;;;;;3.90;1.07;;;11.00;99.90;;;11.23;100.00;98439.81;5061817;28;20971;-79
2023/01/05 01:55:15;;;;;;;1.47;0.90;;;10.90;99.90;;;11.22;100.00;98446.84;5056908;28;20567;-78
2023/01/05 01:57:46;;;;;;;3.13;0.93;;;10.80;99.90;;;11.22;100.00;98452.06;5058054;28;20507;-81
2023/01/05 02:00:17;;;;;;;1.40;1.10;;;10.90;99.90;;;11.20;100.00;98455.88;5058842;28;20449;-79
2023/01/05 02:02:52;;;;;;;3.70;1.03;;;10.90;99.90;;;11.19;100.00;98455.06;5059906;28;21029;-79
2023/01/05 02:05:29;;;;;;;1.57;0.80;;;10.80;99.90;;;11.21;100.00;98454.91;5058419;28;20502;-79
2023/01/05 02:07:59;;;;;;;1.00;0.90;;;10.80;99.90;;;11.23;100.00;98450.28;5058084;28;21236;-78
2023/01/05 02:11:12;;;;;;;1.10;1.00;;;10.80;99.90;;;11.20;100.00;98448.03;5057221;28;20475;-79
2023/01/05 02:13:58;;;;;;;3.33;0.80;;;10.80;99.90;;;11.17;100.00;98449.22;5056118;28;20514;-79
2023/01/05 02:16:42;;;;;;;2.50;0.83;;;10.80;99.90;;;11.16;100.00;98455.44;5054842;28;20857;-80
2023/01/05 02:20:13;;;;;;;1.13;0.80;;;10.80;99.90;;;11.15;100.00;98452.97;5056962;28;20836;-79
2023/01/05 02:23:20;;;;;;;3.00;0.90;;;10.80;99.90;;;11.13;100.00;98455.78;5057769;28;20473;-79
2023/01/05 02:26:47;;;;;;;1.30;0.83;;;10.70;99.90;;;11.14;100.00;98459.22;5056952;28;20502;-79
2023/01/05 02:29:56;;;;;;;4.13;1.60;;;10.80;99.90;;;11.11;100.00;98452.53;5056761;28;20570;-79
2023/01/05 02:32:40;;;;;;;10.47;1.10;;;10.70;99.90;;;11.09;100.00;98449.28;5051788;28;20471;-78
2023/01/05 02:35:23;;;;;;;3.97;1.20;;;10.60;99.90;;;11.07;100.00;98451.28;5057985;28;20456;-79
2023/01/05 02:38:05;;;;;;;9.47;1.20;;;10.70;99.90;;;11.05;100.00;98440.97;5053242;28;20506;-79
2023/01/05 02:40:42;;;;;;;9.77;1.83;;;10.70;99.90;;;11.01;100.00;98437.09;5054892;28;20866;-78
2023/01/05 02:43:14;;;;;;;7.47;1.60;;;10.70;99.90;;;11.00;100.00;98450.38;5054256;28;20484;-80
2023/01/05 02:45:44;;;;;;;5.87;1.27;;;10.60;99.90;;;10.93;100.00;98462.56;5057405;28;20487;-79
2023/01/05 02:48:15;;;;;;;4.70;1.80;;;10.50;99.90;;;10.93;100.00;98447.63;5059642;28;20472;-79
2023/01/05 02:50:52;;;;;;;4.90;1.40;;;10.50;99.90;;;10.89;100.00;98453.44;5057166;28;20473;-79
2023/01/05 02:53:29;;;;;;;10.80;2.03;;;10.50;99.90;;;10.84;100.00;98458.38;5060150;28;20517;-78
2023/01/05 02:56:07;;;;;;;6.40;1.57;;;10.50;99.90;;;10.84;100.00;98467.03;5055739;28;20544;-79
2023/01/05 02:58:44;;;;;;;4.73;1.23;;;10.50;99.90;;;10.84;100.00;98468.84;5059319;28;20484;-79
2023/01/05 03:01:20;;;;;;;7.67;1.93;;;10.40;99.90;;;10.75;100.00;98464.69;5059763;28;20464;-79
2023/01/05 03:03:57;;;;;;;5.97;1.80;;;10.30;99.90;;;10.70;100.00;98453.91;5056330;28;20452;-79
2023/01/05 03:06:33;;;;;;;12.20;2.10;;;10.20;99.90;;;10.71;100.00;98455.56;5056995;28;20479;-78
2023/01/05 03:09:06;;;;;;;11.23;1.83;;;10.30;99.90;;;10.63;100.00;98461.66;5054295;28;20483;-79
2023/01/05 03:14:37;;;;;;;9.23;1.90;;;10.10;99.90;;;10.46;100.00;98473.25;5055453;28;20544;-79
2023/01/05 03:17:15;;;;;;;16.40;2.33;;;10.00;99.90;;;10.52;100.00;98478.59;5054808;28;20920;-79
2023/01/05 03:19:50;;;;;;;12.50;2.50;;;10.10;99.90;;;10.49;100.00;98484.16;5055779;28;20469;-78
2023/01/05 03:37:03;;;;;;;6.73;1.50;;;10.10;99.90;;;10.51;100.00;98500.53;5056734;28;20457;-78
2023/01/05 03:39:38;;;;;;;7.90;2.20;;;10.10;99.90;;;10.51;100.00;98513.59;5058710;28;20909;-79
2023/01/05 03:42:10;;;;;;;15.53;1.63;;;10.10;99.90;;;10.49;100.00;98506.88;5055955;28;20467;-78
2023/01/05 03:44:43;;;;;;;13.10;2.40;;;10.10;99.90;;;10.47;100.00;98514.94;5057035;28;20974;-79
2023/01/05 03:47:14;;;;;;;11.73;2.10;;;10.00;99.90;;;10.41;100.00;98509.59;5058623;28;20501;-79
2023/01/05 03:49:43;;;;;;;10.70;2.87;;;10.00;99.90;;;10.38;100.00;98515.94;5057354;28;20467;-78
2023/01/05 03:52:14;;;;;;;11.33;2.07;;;10.00;99.90;;;10.37;100.00;98522.19;5057913;28;20852;-78
2023/01/05 03:54:44;;;;;;;19.33;2.13;;;9.90;99.90;;;10.35;100.00;98518.09;5054774;28;20474;-79
2023/01/05 03:57:12;;;;;;;10.23;2.00;;;10.00;99.90;;;10.31;100.00;98517.63;5055712;28;20511;-78
2023/01/05 03:59:43;;;;;;;10.97;2.20;;;10.00;99.90;;;10.32;100.00;98516.66;5054782;28;20464;-79
2023/01/05 04:02:12;;;;;;;9.73;2.10;;;9.90;99.90;;;10.32;100.00;98514.03;5057198;28;20555;-79
2023/01/05 04:04:43;;;;;;;20.63;2.83;;;9.90;99.90;;;10.33;100.00;98507.00;5057990;28;20457;-79
2023/01/05 04:07:13;;;;;;;11.23;2.90;;;9.90;99.90;;;10.28;100.00;98519.78;5059072;28;20530;-79
2023/01/05 04:09:43;;;;;;;10.00;1.70;;;9.90;99.90;;;10.30;100.00;98515.22;5057494;28;20519;-78
2023/01/05 04:12:12;;;;;;;11.97;2.17;;;9.90;99.90;;;10.30;100.00;98526.47;5054734;28;20472;-79
2023/01/05 04:14:43;;;;;;;7.40;2.40;;;9.90;99.90;;;10.30;100.00;98517.81;5052919;28;20452;-77
2023/01/05 04:17:12;;;;;;;12.27;3.67;;;9.90;99.90;;;10.25;100.00;98523.56;5052694;28;20571;-79
2023/01/05 04:19:43;;;;;;;15.13;2.57;;;9.90;99.90;;;10.26;100.00;98537.44;5053499;28;20472;-79
2023/01/05 04:22:14;;;;;;;67.17;29.60;;;9.80;99.90;;;10.23;100.00;98528.16;5052595;28;20520;-79
2023/01/05 04:24:44;;;;;;;11.10;2.43;;;9.80;99.90;;;10.20;100.00;98536.34;5052547;28;20457;-79
2023/01/05 04:27:13;;;;;;;5.40;2.40;;;9.80;99.90;;;10.19;100.00;98539.94;5057182;28;20507;-79
2023/01/05 04:29:43;;;;;;;9.27;1.80;;;9.80;99.90;;;10.16;100.00;98514.16;5058720;28;20587;-79
2023/01/05 04:32:12;;;;;;;10.70;1.70;;;9.80;99.90;;;10.14;100.00;98526.56;5056116;28;20523;-79
2023/01/05 04:34:42;;;;;;;7.80;2.50;;;9.70;99.90;;;10.13;100.00;98517.88;5053439;28;20654;-79
2023/01/05 04:37:14;;;;;;;23.53;2.70;;;9.70;99.90;;;10.12;100.00;98528.50;5056501;28;20456;-79
2023/01/05 04:39:43;;;;;;;6.70;2.03;;;9.70;99.90;;;10.14;100.00;98510.88;5057253;28;20452;-80
2023/01/05 04:42:12;;;;;;;14.33;2.50;;;9.70;99.90;;;10.15;100.00;98509.91;5057359;28;20564;-79
2023/01/05 04:44:41;;;;;;;10.40;1.93;;;9.70;99.90;;;10.17;100.00;98515.75;5055327;28;20464;-79
2023/01/05 04:47:11;;;;;;;39.40;14.80;;;9.70;99.90;;;10.18;100.00;98525.22;5052254;28;21052;-79
2023/01/05 04:49:40;;;;;;;10.93;2.70;;;9.70;99.90;;;10.13;100.00;98541.38;5053382;28;20456;-79
2023/01/05 04:52:09;;;;;;;12.40;2.50;;;9.70;99.90;;;10.16;100.00;98540.28;5057256;28;20461;-79
2023/01/05 04:54:41;;;;;;;9.70;2.10;;;9.80;99.90;;;10.16;100.00;98539.47;5056150;28;20491;-79
2023/01/05 04:57:11;;;;;;;14.30;2.17;;;9.70;99.90;;;10.15;100.00;98537.81;5055743;28;20465;-79
2023/01/05 04:59:40;;;;;;;5.40;2.13;;;9.70;99.90;;;10.13;100.00;98547.63;5057246;28;20456;-78
2023/01/05 05:02:12;;;;;;;11.80;2.90;;;9.70;99.90;;;10.12;100.00;98549.41;5051803;28;20555;-79
2023/01/05 05:04:42;;;;;;;13.70;3.10;;;9.70;99.90;;;10.13;100.00;98545.00;5054778;28;20468;-80
2023/01/05 05:07:12;;;;;;;8.80;2.20;;;9.70;99.90;;;10.12;100.00;98559.88;5053213;28;20479;-80
2023/01/05 05:09:45;;;;;;;9.93;2.50;;;9.70;99.90;;;10.05;100.00;98564.16;5058252;28;20484;-79
2023/01/05 05:12:19;;;;;;;13.30;2.90;;;9.50;99.90;;;10.07;100.00;98564.78;5056429;28;20461;-79
2023/01/05 05:14:48;;;;;;;14.00;1.90;;;9.50;99.90;;;10.06;100.00;98571.00;5055434;28;20473;-79
2023/01/05 05:17:18;;;;;;;17.43;3.13;;;9.60;99.90;;;10.07;100.00;98557.75;5055846;28;20554;-80
2023/01/05 05:19:48;;;;;;;8.03;2.30;;;9.60;99.90;;;10.08;100.00;98566.41;5055217;28;20500;-78
2023/01/05 05:22:17;;;;;;;17.13;2.27;;;9.60;99.90;;;10.09;100.00;98565.44;5057049;28;20460;-79
2023/01/05 05:24:48;;;;;;;8.63;1.80;;;9.70;99.90;;;10.06;100.00;98569.22;5050328;28;20472;-79
2023/01/05 05:27:18;;;;;;;21.93;2.40;;;9.60;99.90;;;10.09;100.00;98575.91;5055883;28;21568;-79
2023/01/05 05:29:48;;;;;;;12.30;1.90;;;9.60;99.90;;;10.08;100.00;98569.84;5056161;28;20928;-78
2023/01/05 05:32:18;;;;;;;11.50;2.90;;;9.60;99.90;;;10.07;100.00;98577.84;5054224;28;20555;-78
2023/01/05 05:34:47;;;;;;;15.63;2.77;;;9.60;99.90;;;10.09;100.00;98571.47;5054712;28;20461;-78
2023/01/05 05:37:16;;;;;;;17.07;2.20;;;9.60;99.90;;;10.09;100.00;98570.66;5054465;28;20464;-78
2023/01/05 05:39:48;;;;;;;7.13;2.07;;;9.60;99.90;;;10.07;100.00;98577.84;5056206;28;20966;-78
2023/01/05 05:42:18;;;;;;;10.30;2.13;;;9.50;99.90;;;10.09;100.00;98571.47;5055282;28;20456;-78
2023/01/05 05:44:47;;;;;;;14.20;2.13;;;9.60;99.90;;;10.09;100.00;98570.66;5055182;28;21347;-79
2023/01/05 05:47:17;;;;;;;10.60;2.30;;;9.60;99.90;;;10.07;100.00;98576.03;5056814;28;20495;-78
2023/01/05 05:49:47;;;;;;;16.43;2.73;;;9.60;99.90;;;10.04;100.00;98576.41;5058577;28;20453;-79
2023/01/05 05:52:16;;;;;;;8.00;2.30;;;9.50;99.90;;;10.06;100.00;98573.63;5057486;28;20492;-79
2023/01/05 05:54:47;;;;;;;15.27;2.70;;;9.50;99.90;;;10.00;100.00;98564.66;5055474;28;20475;-78
2023/01/05 05:57:17;;;;;;;10.83;1.90;;;9.40;99.90;;;10.03;100.00;98571.34;5057945;28;20908;-79
2023/01/05 05:59:48;;;;;;;7.00;2.03;;;9.60;99.90;;;9.97;100.00;98580.66;5057865;28;20491;-79
2023/01/05 06:02:19;;;;;;;10.20;2.23;;;9.50;99.90;;;10.01;100.00;98581.97;5054876;28;20560;-79
2023/01/05 06:04:51;;;;;;;9.00;2.33;;;9.50;99.90;;;10.03;100.00;98576.59;5058590;28;20464;-79
2023/01/05 06:07:21;;;;;;;9.87;2.43;;;9.60;99.90;;;10.03;100.00;98582.59;5056953;28;20559;-78
2023/01/05 06:09:53;;;;;;;8.70;2.40;;;9.50;99.90;;;10.06;100.00;98589.31;5056212;28;20955;-79
2023/01/05 06:12:23;;;;;;;8.10;2.43;;;9.60;99.90;;;10.04;100.00;98599.09;5054091;28;20479;-79
2023/01/05 06:14:52;;;;;;;6.97;2.40;;;9.50;99.90;;;10.06;100.00;98603.19;5055941;28;20464;-79
2023/01/05 06:17:22;;;;;;;5.73;2.20;;;9.50;99.90;;;10.07;100.00;98596.13;5055358;28;20468;-78
2023/01/05 06:19:52;;;;;;;10.47;2.57;;;9.60;99.90;;;10.04;100.00;98593.88;5057574;28;20471;-79
2023/01/05 06:22:22;;;;;;;8.23;1.90;;;9.60;99.90;;;10.07;100.00;98598.75;5058117;28;20598;-79
2023/01/05 06:24:52;;;;;;;15.80;2.50;;;9.60;99.90;;;10.02;100.00;98601.06;5059991;28;20456;-78
2023/01/05 06:27:22;;;;;;;14.10;2.00;;;9.60;99.90;;;10.04;100.00;98610.34;5058760;28;20463;-78
2023/01/05 06:29:51;;;;;;;12.80;2.53;;;9.60;99.90;;;10.06;100.00;98599.75;5058821;28;21141;-79
2023/01/05 06:32:20;;;;;;;16.03;2.17;;;9.70;99.90;;;10.07;100.00;98610.00;5058659;28;21024;-78
2023/01/05 06:34:50;;;;;;;7.90;1.90;;;9.60;99.90;;;10.07;100.00;98615.25;5057271;28;20921;-79
2023/01/05 06:37:19;;;;;;;5.63;2.63;;;9.60;99.90;;;10.06;100.00;98618.03;5058533;28;20471;-79
2023/01/05 06:39:49;;;;;;;15.10;2.40;;;9.60;99.90;;;10.08;100.00;98621.28;5058644;28;20501;-79
2023/01/05 06:42:20;;;;;;;6.77;1.87;;;9.70;99.90;;;10.10;100.00;98619.31;5057324;28;20555;-79
2023/01/05 06:44:51;;;;;;;11.33;2.40;;;9.70;99.90;;;10.08;100.00;98621.28;5060120;28;20456;-79
2023/01/05 06:47:21;;;;;;;8.53;2.67;;;9.70;99.90;;;10.03;100.00;98623.63;5056395;28;20577;-79
2023/01/05 06:49:52;;;;;;;7.77;2.27;;;9.60;99.90;;;10.02;100.00;98630.63;5059283;28;20493;-78
2023/01/05 06:52:22;;;;;;;8.40;2.07;;;9.60;99.90;;;10.01;100.00;98638.63;5057005;28;20463;-79
2023/01/05 06:54:53;;;;;;;10.13;2.40;;;9.60;99.90;;;10.03;100.00;98641.91;5056366;28;21112;-78
2023/01/05 06:57:24;;;;;;;7.03;2.10;;;9.60;99.90;;;9.96;100.00;98648.78;5057650;28;20457;-79
2023/01/05 06:59:54;;;;;;;10.03;2.43;;;9.50;99.90;;;10.04;100.00;98649.56;5061835;28;20525;-79
2023/01/05 07:02:24;;;;;;;8.97;1.97;;;9.60;99.90;;;9.99;100.00;98658.88;5059220;28;21018;-79
2023/01/05 07:04:55;;;;;;;19.30;2.60;;;9.50;99.90;;;10.01;100.00;98654.31;5059609;28;20465;-79
2023/01/05 07:07:24;;;;;;;8.80;1.80;;;9.50;99.90;;;10.02;100.00;98651.53;5061294;28;20464;-78
2023/01/05 07:09:53;;;;;;;9.80;3.60;;;9.50;99.90;;;10.03;100.00;98647.13;5057465;28;20513;-79
2023/01/05 07:12:24;;;;;;;6.90;1.90;;;9.60;99.90;;;10.05;100.00;98642.53;5059249;28;20538;-79
2023/01/05 07:14:54;;;;;;;10.00;2.27;;;9.70;99.90;;;10.04;100.00;98635.66;5057904;28;20897;-78
2023/01/05 07:17:25;;;;;;;11.40;2.00;;;9.60;99.90;;;10.05;100.00;98651.19;5059671;28;20503;-78
2023/01/05 07:19:54;;;;;;;7.67;2.17;;;9.60;99.90;;;10.09;100.00;98651.66;5059262;28;20484;-79
2023/01/05 07:22:24;;;;;;;12.30;2.00;;;9.60;99.90;;;10.09;100.00;98643.84;5059539;28;20460;-79
2023/01/05 07:24:53;;;;;;;4.93;1.80;;;9.60;99.90;;;10.09;100.00;98659.50;5058262;28;20959;-79
2023/01/05 07:27:25;;;;;;;6.60;1.80;;;9.50;99.90;;;10.10;100.00;98664.53;5059275;28;21224;-78
2023/01/05 07:29:55;;;;;;;5.17;1.70;;;9.50;99.90;;;10.09;100.00;98656.91;5060382;28;20488;-78
2023/01/05 07:32:24;;;;;;;7.00;2.07;;;9.50;99.90;;;10.09;100.00;98659.50;5057007;28;20459;-78
2023/01/05 07:34:54;;;;;;;8.93;1.83;;;9.60;99.90;;;10.09;100.00;98664.72;5056989;28;20485;-78
2023/01/05 07:37:25;;;;;;;6.33;1.80;;;9.60;99.90;;;9.96;100.00;98675.69;5057450;28;20878;-79
2023/01/05 07:39:55;;;;;;;10.23;2.20;;;9.40;99.90;;;9.99;100.00;98667.53;5059075;28;20533;-79
2023/01/05 07:42:27;;;;;;;10.13;2.53;;;9.50;99.90;;;10.01;100.00;98667.38;5053972;28;20570;-79
2023/01/05 07:44:56;;;;;;;8.17;1.87;;;9.50;99.90;;;10.02;100.00;98675.03;5054734;28;20465;-78
2023/01/05 07:47:27;;;;;;;7.13;2.37;;;9.50;99.90;;;10.05;100.00;98666.88;5054890;28;20471;-79
2023/01/05 07:49:56;;;;;;;10.40;2.03;;;9.50;99.90;;;10.04;100.00;98673.06;5057131;28;20588;-78
2023/01/05 07:52:28;;;;;;;9.57;2.77;;;9.50;99.90;;;10.04;100.00;98675.69;5054850;28;20587;-78
2023/01/05 07:54:59;;;;;;;6.33;2.03;;;9.60;99.90;;;10.05;100.00;98679.13;5057246;28;21241;-78
2023/01/05 07:57:30;;;;;;;11.70;3.30;;;9.60;99.90;;;10.01;100.00;98677.81;5057679;28;20464;-78
2023/01/05 08:00:00;;;;;;;7.50;1.80;;;9.60;99.90;;;10.02;100.00;98687.28;5057891;28;20484;-79
2023/01/05 08:02:29;;;;;;;15.73;3.07;;;9.50;99.90;;;10.05;100.00;98686.94;5058137;28;20457;-79
2023/01/05 08:05:04;;;;;;;15.60;2.27;;;9.60;99.90;;;10.01;100.00;98694.31;5057095;28;20522;-78
2023/01/05 08:07:35;;;;;;;15.50;2.60;;;9.50;99.90;;;10.03;100.00;98696.78;5057849;28;20539;-79
2023/01/05 08:15:48;;;;;;;18.33;2.90;;;9.50;99.90;;;10.03;100.00;98712.44;5056792;28;20493;-79
2023/01/05 08:18:19;;;;;;;6.43;2.10;;;9.50;99.90;;;10.05;100.00;98700.00;5053109;28;21217;-78
2023/01/05 08:20:53;;;;;;;8.77;2.40;;;9.50;99.90;;;10.05;100.00;98715.69;5057287;28;20539;-79
2023/01/05 08:23:24;;;;;;;11.17;2.00;;;9.50;99.90;;;10.06;100.00;98717.34;5056175;28;20467;-79
2023/01/05 08:25:55;;;;;;;9.47;2.47;;;9.50;99.90;;;10.04;100.00;98717.50;5055947;28;20538;-79
2023/01/05 08:28:26;;;;;;;14.10;2.67;;;9.50;99.90;;;10.07;100.00;98725.00;5055067;28;20456;-79
2023/01/05 08:31:06;;;;;;;7.40;1.97;;;9.50;99.90;;;10.03;100.00;98723.69;5054809;28;20457;-79
2023/01/05 08:33:36;;;;;;;21.00;3.53;;;9.60;99.90;;;10.02;100.00;98726.47;5055891;28;20457;-79
2023/01/05 08:36:09;;;;;;;13.27;2.27;;;9.50;99.90;;;10.06;100.00;98733.84;5054239;28;20496;-79
2023/01/05 08:38:47;;;;;;;19.03;2.37;;;9.60;99.90;;;10.08;100.00;98731.84;5056391;28;20460;-78
2023/01/05 08:41:18;;;;;;;13.37;2.70;;;9.60;99.90;;;10.11;100.00;98728.09;5052937;28;20489;-79
2023/01/05 08:43:52;;;;;;;12.43;2.83;;;9.60;99.90;;;10.06;100.00;98725.16;5056591;28;20551;-79
2023/01/05 08:46:24;;;;;;;22.97;3.10;;;9.50;99.90;;;10.06;100.00;98730.41;5055210;28;21015;-78
2023/01/05 08:48:57;;;;;;;15.13;2.90;;;9.50;99.90;;;10.01;100.00;98730.06;5056924;28;20909;-79
2023/01/05 08:51:27;;;;;;;10.90;2.87;;;9.50;99.90;;;10.02;100.00;98726.47;5055270;28;21077;-78
2023/01/05 08:53:58;;;;;;;16.47;2.63;;;9.50;99.90;;;10.05;100.00;98723.53;5054095;28;20498;-79
2023/01/05 08:56:28;;;;;;;15.23;3.00;;;9.60;99.90;;;10.09;100.00;98736.09;5056854;28;20985;-78
2023/01/05 08:59:11;;;;;;;13.30;2.60;;;9.60;99.90;;;10.12;100.00;98724.50;5057392;28;20514;-79
2023/01/05 09:01:40;;;;;;;23.50;3.10;;;9.60;99.90;;;10.10;100.00;98729.06;5052013;28;20464;-78
2023/01/05 09:04:09;;;;;;;9.50;2.93;;;9.70;99.90;;;10.14;100.00;98725.16;5058033;28;20539;-79
2023/01/05 09:06:40;;;;;;;9.67;2.10;;;9.70;99.90;;;10.17;100.00;98727.44;5056614;28;20463;-79
2023/01/05 09:09:10;;;;;;;18.83;3.20;;;9.70;99.90;;;10.19;100.00;98738.56;5058236;28;20488;-78
2023/01/05 09:11:41;;;;;;;15.87;3.00;;;9.70;99.90;;;10.18;100.00;98731.69;5056812;28;20455;-79
2023/01/05 09:14:14;;;;;;;14.77;2.47;;;9.70;99.90;;;10.21;100.00;98736.59;5054480;28;20476;-79
2023/01/05 09:16:45;;;;;;;11.33;2.47;;;9.80;99.90;;;10.21;100.00;98741.81;5057180;28;20481;-78
2023/01/05 09:19:34;;;;;;;12.13;2.30;;;9.80;99.90;;;10.25;100.00;98742.28;5053935;28;20523;-79
2023/01/05 09:22:04;;;;;;;11.57;2.10;;;9.80;99.90;;;10.26;100.00;98738.69;5057146;28;20511;-79
2023/01/05 09:24:34;;;;;;;14.20;2.37;;;9.80;99.90;;;10.27;100.00;98725.47;5055931;28;21025;-79
2023/01/05 09:27:06;;;;;;;12.20;2.70;;;9.80;99.90;;;10.25;100.00;98737.88;5052996;28;20548;-79
2023/01/05 09:29:36;;;;;;;12.53;2.43;;;9.80;99.90;;;10.27;100.00;98743.78;5054390;28;20999;-78
2023/01/05 09:32:06;;;;;;;9.37;2.30;;;9.80;99.90;;;10.26;100.00;98744.75;5052589;28;20477;-79
2023/01/05 09:34:37;;;;;;;27.17;3.00;;;9.80;99.90;;;10.30;100.00;98745.22;5054911;28;20469;-79
2023/01/05 09:37:07;;;;;;;18.40;3.00;;;9.90;99.90;;;10.30;100.00;98746.06;5055686;28;20528;-79
2023/01/05 09:39:36;;;;;;;12.47;2.63;;;9.90;99.90;;;10.33;100.00;98750.94;5055408;28;20460;-78
2023/01/05 09:42:16;;;;;;;20.73;3.17;;;9.90;99.90;;;10.31;100.00;98745.03;5054913;28;20461;-78
2023/01/05 09:44:50;;;;;;;12.23;3.07;;;9.90;99.90;;;10.30;100.00;98751.28;5055335;28;20468;-79
2023/01/05 09:47:36;;;;;;;12.17;3.07;;;9.80;99.90;;;10.36;100.00;98755.00;5055750;28;20488;-78
2023/01/05 09:50:16;;;;;;;11.20;3.63;;;9.90;99.90;;;10.39;100.00;98757.28;5055759;28;20529;-78
2023/01/05 09:52:46;;;;;;;10.67;2.10;;;10.00;99.90;;;10.41;100.00;98750.91;5054377;28;20517;-79
2023/01/05 09:55:19;;;;;;;8.17;2.50;;;10.00;99.90;;;10.39;100.00;98755.47;5058373;28;20460;-79
2023/01/05 09:57:57;;;;;;;13.50;2.70;;;10.00;99.90;;;10.43;100.00;98759.41;5059594;28;20462;-78
2023/01/05 10:00:29;;;;;;;18.33;2.90;;;10.00;99.90;;;10.45;100.00;98754.81;5058768;28;20541;-79
2023/01/05 10:03:03;;;;;;;17.27;3.10;;;10.00;99.90;;;10.48;100.00;98759.69;5059447;28;20567;-79
2023/01/05 10:05:38;;;;;;;9.23;2.57;;;10.10;99.90;;;10.50;100.00;98765.59;5058536;28;20463;-79
2023/01/05 10:08:16;;;;;;;20.20;3.37;;;10.10;99.90;;;10.52;100.00;98762.78;5058586;28;20459;-79
2023/01/05 10:13:39;;;;;;;13.50;3.40;;;10.10;99.90;;;10.55;100.00;98771.13;5058447;28;20464;-78
2023/01/05 10:16:17;;;;;;;17.27;3.47;;;10.20;99.90;;;10.54;100.00;98768.69;5057583;28;20474;-79
2023/01/05 10:18:48;;;;;;;19.17;3.70;;;10.10;99.90;;;10.55;100.00;98767.72;5060170;28;20460;-79
2023/01/05 10:21:34;;;;;;;7.80;2.33;;;10.10;99.90;;;10.56;100.00;98770.13;5055207;28;20474;-78
2023/01/05 10:24:45;;;;;;;6.23;2.23;;;10.10;99.90;;;10.57;100.00;98773.56;5057656;28;20556;-79
2023/01/05 10:27:26;;;;;;;12.83;2.73;;;10.10;99.90;;;10.60;100.00;98770.63;5058514;28;20502;-79
2023/01/05 10:30:10;;;;;;;9.03;2.80;;;10.10;99.90;;;10.63;100.00;98772.06;5057801;28;20483;-78
2023/01/05 10:32:59;;;;;;;23.83;2.60;;;10.20;99.90;;;10.65;100.00;98770.94;5056563;28;20577;-78
2023/01/05 10:36:01;;;;;;;12.47;2.73;;;10.20;99.90;;;10.64;100.00;98778.94;5056849;28;20510;-78
2023/01/05 10:38:54;;;;;;;19.33;2.80;;;10.20;99.90;;;10.66;100.00;98766.50;5058773;28;20869;-79
2023/01/05 10:41:38;;;;;;;10.70;3.10;;;10.30;99.90;;;10.59;100.00;98775.03;5057460;28;20475;-79
2023/01/05 10:44:55;;;;;;;25.97;3.83;;;10.20;99.90;;;10.56;100.00;98775.38;5058901;28;20479;-79
2023/01/05 10:47:29;;;;;;;13.17;2.83;;;10.10;99.90;;;10.58;100.00;98778.66;5045660;28;20493;-79
2023/01/05 10:50:02;;;;;;;16.40;2.73;;;10.10;99.90;;;10.57;100.00;98768.34;5059761;28;20844;-78
2023/01/05 10:52:32;;;;;;;22.20;4.00;;;10.10;99.90;;;10.57;100.00;98774.41;5057359;28;20575;-78
2023/01/05 10:55:02;;;;;;;11.60;2.43;;;10.10;99.90;;;10.56;100.00;98774.53;5058771;28;20948;-78
2023/01/05 10:57:40;;;;;;;15.30;3.27;;;10.10;99.90;;;10.55;100.00;98767.72;5058891;28;20556;-78
2023/01/05 11:00:18;;;;;;;12.77;3.13;;;10.10;99.90;;;10.55;100.00;98763.25;5054768;28;20954;-78
2023/01/05 11:02:53;;;;;;;15.73;3.27;;;10.10;99.90;;;10.59;100.00;98766.34;5058161;28;20460;-78
2023/01/05 11:05:34;;;;;;;17.50;2.73;;;10.10;99.90;;;10.58;100.00;98757.72;5057796;28;20559;-78
2023/01/05 11:08:06;;;;;;;15.73;3.50;;;10.20;99.90;;;10.63;100.00;98759.00;5058303;28;20469;-78
2023/01/05 11:10:41;;;;;;;13.17;3.53;;;10.20;99.90;;;10.62;100.00;98760.78;5058221;28;20490;-77
2023/01/05 11:13:27;;;;;;;15.70;3.10;;;10.10;99.90;;;10.65;100.00;98764.88;5056879;28;20538;-77
2023/01/05 11:16:03;;;;;;;17.63;3.90;;;10.20;99.90;;;10.63;100.00;98746.72;5059535;28;20456;-78
2023/01/05 11:18:40;;;;;;;14.93;2.70;;;10.10;99.90;;;10.66;100.00;98750.81;5054580;28;20559;-77